Shell Lake, Canada
Current Conditions -  °F | °C
As of 6:00 AM on Thursday 27 Nov 2014 (Local Time) from CYPA Reporting Station
Light Snow Light Snow  
Wind Chill: -18°   Ceiling: 700
Heat Index: -18°   Visibility: 15mi
Dew Point: -20°   Wind: 2mph
Humidity: 85%   Direction: 80°E
Pressure: 30.17"   Gusts: NA
Location:  53.3°N, 107.05°W
Report Text: CYPA 271200Z 08002KT 15SM -SN OVC007 M18/M20 A3017 RMK ST8 /S01/ SNW CVR/MUCH LOOSE SLP265
Loading
Personal Weather Stations






























Interactive Weather Map New forecast layout! Learn more

10-Day Weather Forecast

Advertisements
Track Severe Weather on mobile